Time;durP1;ratioP1;P1;durP2;ratioP2;P2;SDS_P1;SDS_P2;PMS_P1;PMS_P2;Temp;Humidity;BMP_temperature;BMP_pressure;BME280_temperature;BME280_humidity;BME280_pressure;Samples;Min_cycle;Max_cycle;Signal;HPM_P1;HPM_P2
2022/10/31 00:00:57;;;;;;;49.40;26.13;;;10.90;99.90;;;;;;10518500;28;20438;-89
2022/10/31 00:06:18;;;;;;;47.67;23.57;;;10.90;99.90;;;;;;10511748;28;20196;-78
2022/10/31 00:11:39;;;;;;;40.57;22.90;;;11.00;99.90;;;;;;10519495;28;20494;-81
2022/10/31 00:17:00;;;;;;;41.90;21.60;;;11.00;99.90;;;;;;10519855;28;20493;-80
2022/10/31 00:22:21;;;;;;;45.00;21.30;;;11.00;99.90;;;;;;10518498;28;20191;-79
2022/10/31 00:27:43;;;;;;;37.37;19.70;;;11.00;99.90;;;;;;10518778;28;20191;-80
2022/10/31 00:33:05;;;;;;;39.97;21.27;;;11.00;99.90;;;;;;10518830;28;20243;-81
2022/10/31 00:38:26;;;;;;;32.97;19.33;;;11.10;99.90;;;;;;10508775;28;20574;-84
2022/10/31 00:43:47;;;;;;;29.90;17.40;;;11.10;99.90;;;;;;10551206;28;20201;-81
2022/10/31 00:49:08;;;;;;;37.13;19.87;;;11.00;99.90;;;;;;10503707;28;20252;-79
2022/10/31 00:54:30;;;;;;;40.97;21.97;;;11.00;99.90;;;;;;10487426;28;20231;-80
2022/10/31 00:59:51;;;;;;;44.77;22.23;;;11.10;99.90;;;;;;10489588;28;20192;-78
2022/10/31 01:05:13;;;;;;;37.47;19.80;;;11.10;99.90;;;;;;10519302;28;20203;-88
2022/10/31 01:10:35;;;;;;;38.87;21.03;;;11.10;99.90;;;;;;10511992;28;20194;-89
2022/10/31 01:15:57;;;;;;;39.80;22.07;;;11.10;99.90;;;;;;10510677;28;20231;-79
2022/10/31 01:21:24;;;;;;;44.13;23.27;;;11.10;99.90;;;;;;10524719;28;20208;-78
2022/10/31 01:26:45;;;;;;;39.77;22.33;;;11.10;99.90;;;;;;10525044;28;20189;-86
2022/10/31 01:32:06;;;;;;;39.27;22.30;;;11.10;99.90;;;;;;10510699;28;20294;-88
2022/10/31 01:37:27;;;;;;;38.77;21.60;;;11.20;99.90;;;;;;10496439;28;20245;-79
2022/10/31 01:42:48;;;;;;;38.80;21.17;;;11.20;99.90;;;;;;10552217;28;20214;-81
2022/10/31 01:48:15;;;;;;;36.53;20.20;;;11.20;99.90;;;;;;10535565;28;20224;-81
2022/10/31 01:53:36;;;;;;;44.87;22.60;;;11.20;99.90;;;;;;10519050;28;20219;-79
2022/10/31 01:59:01;;;;;;;41.37;23.03;;;11.20;99.90;;;;;;10523807;28;20191;-78
2022/10/31 02:04:25;;;;;;;37.90;20.30;;;11.20;99.90;;;;;;10520367;28;20200;-88
2022/10/31 02:09:49;;;;;;;30.60;18.93;;;11.20;99.90;;;;;;10522681;28;20195;-87
2022/10/31 02:15:11;;;;;;;34.37;20.03;;;11.20;99.90;;;;;;10508639;28;20536;-77
2022/10/31 02:21:00;;;;;;;36.33;19.83;;;11.20;99.90;;;;;;10508079;28;20222;-79
2022/10/31 02:26:51;;;;;;;34.90;21.70;;;11.20;99.90;;;;;;10522552;28;20238;-79
2022/10/31 02:32:39;;;;;;;34.97;22.13;;;11.20;99.90;;;;;;10507551;28;20222;-81
2022/10/31 02:38:16;;;;;;;36.27;20.87;;;11.20;99.90;;;;;;10508049;28;20206;-80
2022/10/31 02:44:25;;;;;;;36.20;22.10;;;11.30;99.90;;;;;;10540569;28;20276;-78
2022/10/31 02:50:05;;;;;;;33.53;20.23;;;11.20;99.90;;;;;;10463592;28;20193;-79
2022/10/31 02:55:27;;;;;;;34.47;21.07;;;11.20;99.90;;;;;;10459053;28;20248;-85
2022/10/31 03:01:08;;;;;;;31.63;19.27;;;11.20;99.90;;;;;;10441538;28;20275;-78
2022/10/31 03:06:41;;;;;;;36.60;22.37;;;11.20;99.90;;;;;;10490973;28;20206;-79
2022/10/31 03:12:22;;;;;;;35.60;20.43;;;11.20;99.90;;;;;;10476851;28;20231;-80
2022/10/31 03:18:22;;;;;;;32.60;19.53;;;11.20;99.90;;;;;;10477350;28;20213;-79
2022/10/31 03:23:45;;;;;;;36.87;22.47;;;11.20;99.90;;;;;;10476137;28;20208;-78
2022/10/31 03:29:16;;;;;;;39.80;22.67;;;11.20;99.90;;;;;;10470798;28;20239;-81
2022/10/31 03:34:41;;;;;;;38.63;23.27;;;11.20;99.90;;;;;;10520178;28;20466;-89
2022/10/31 03:40:05;;;;;;;31.60;21.57;;;11.20;99.90;;;;;;10523178;28;20283;-79
2022/10/31 03:45:30;;;;;;;36.00;23.10;;;11.20;99.90;;;;;;10522797;28;20589;-89
2022/10/31 03:51:21;;;;;;;38.00;24.87;;;11.20;99.90;;;;;;10533706;28;20218;-79
2022/10/31 03:56:50;;;;;;;28.80;20.83;;;11.20;99.90;;;;;;10450603;28;20209;-83
2022/10/31 04:02:16;;;;;;;36.87;21.87;;;11.20;99.90;;;;;;10449544;28;20215;-86
2022/10/31 04:07:42;;;;;;;35.53;21.37;;;11.20;99.90;;;;;;10492037;28;20207;-78
2022/10/31 04:13:13;;;;;;;36.60;21.43;;;11.20;99.90;;;;;;10458216;28;20234;-89
2022/10/31 04:18:43;;;;;;;29.93;20.87;;;11.20;99.90;;;;;;10460941;28;20206;-78
2022/10/31 04:24:05;;;;;;;31.80;21.20;;;11.30;99.90;;;;;;10472382;28;20216;-88
2022/10/31 04:29:26;;;;;;;32.00;22.23;;;11.30;99.90;;;;;;10443520;28;20216;-79
2022/10/31 04:34:47;;;;;;;30.13;20.43;;;11.30;99.90;;;;;;10522361;28;20387;-79
2022/10/31 04:40:09;;;;;;;33.23;21.93;;;11.30;99.90;;;;;;10545064;28;20344;-84
2022/10/31 04:45:37;;;;;;;34.50;22.17;;;11.30;99.90;;;;;;10544474;28;20262;-88
2022/10/31 04:51:00;;;;;;;31.23;21.80;;;11.30;99.90;;;;;;10526648;28;20435;-78
2022/10/31 04:56:21;;;;;;;31.53;21.43;;;11.40;99.90;;;;;;10472040;28;20228;-88
2022/10/31 05:01:48;;;;;;;30.40;20.93;;;11.40;99.90;;;;;;10516623;28;20224;-89
2022/10/31 05:07:14;;;;;;;29.80;19.70;;;11.40;99.90;;;;;;10511438;28;20505;-89
2022/10/31 05:12:37;;;;;;;29.33;20.47;;;11.40;99.90;;;;;;10497401;28;20248;-87
2022/10/31 05:18:17;;;;;;;26.07;19.73;;;11.40;99.90;;;;;;10526547;28;20494;-89
2022/10/31 05:23:57;;;;;;;27.67;20.37;;;11.50;99.90;;;;;;10526006;28;20229;-89
2022/10/31 05:29:19;;;;;;;27.20;19.77;;;11.50;99.90;;;;;;10511451;28;20570;-88
2022/10/31 05:34:41;;;;;;;22.20;17.70;;;11.50;99.90;;;;;;10511519;28;20220;-88
2022/10/31 05:40:28;;;;;;;22.60;16.60;;;11.50;99.90;;;;;;10546327;28;20475;-89
2022/10/31 05:45:53;;;;;;;25.70;19.03;;;11.50;99.90;;;;;;10524889;28;20235;-84
2022/10/31 05:51:34;;;;;;;30.33;21.17;;;11.50;99.90;;;;;;10525160;28;20188;-83
2022/10/31 05:56:57;;;;;;;29.53;20.30;;;11.60;99.90;;;;;;10483180;28;20203;-86
2022/10/31 06:02:21;;;;;;;28.50;20.77;;;11.60;99.90;;;;;;10507065;28;20220;-84
2022/10/31 06:08:15;;;;;;;31.73;22.03;;;11.60;99.90;;;;;;10479202;28;20395;-79
2022/10/31 06:13:37;;;;;;;30.73;22.67;;;11.60;99.90;;;;;;10463355;28;20229;-79
2022/10/31 06:19:09;;;;;;;34.57;23.27;;;11.60;99.90;;;;;;10462608;28;20443;-89
2022/10/31 06:24:30;;;;;;;31.83;22.90;;;11.60;99.90;;;;;;10480971;28;20284;-80
2022/10/31 06:30:14;;;;;;;39.50;29.37;;;11.70;99.90;;;;;;10463726;28;20281;-78
2022/10/31 06:35:44;;;;;;;37.23;26.13;;;11.70;99.90;;;;;;10442145;28;20229;-89
2022/10/31 06:41:05;;;;;;;32.93;22.07;;;11.70;99.90;;;;;;10500964;28;20205;-80
2022/10/31 06:46:34;;;;;;;36.10;25.70;;;11.70;99.90;;;;;;10488918;28;20261;-88
2022/10/31 06:52:16;;;;;;;55.33;38.93;;;11.70;99.90;;;;;;10438325;28;20459;-82
2022/10/31 06:57:37;;;;;;;47.57;32.07;;;11.70;99.90;;;;;;10438307;28;20414;-79
2022/10/31 07:03:00;;;;;;;38.00;26.30;;;11.70;99.90;;;;;;10445141;28;20218;-85
2022/10/31 07:08:23;;;;;;;31.97;20.57;;;11.80;99.90;;;;;;10465737;28;20414;-82
2022/10/31 07:13:44;;;;;;;39.63;22.87;;;11.70;99.90;;;;;;10465230;28;20322;-90
2022/10/31 07:19:06;;;;;;;35.90;24.13;;;11.80;99.90;;;;;;10446678;28;20196;-89
2022/10/31 07:24:27;;;;;;;41.57;23.60;;;11.90;99.90;;;;;;10462380;28;20196;-91
2022/10/31 07:30:18;;;;;;;41.87;26.67;;;11.90;99.90;;;;;;10375331;28;20255;-85
2022/10/31 07:35:44;;;;;;;47.83;28.43;;;11.90;99.90;;;;;;10380719;28;20454;-78
2022/10/31 07:41:07;;;;;;;41.83;25.03;;;11.90;99.90;;;;;;10383913;28;20209;-88
2022/10/31 07:46:33;;;;;;;39.27;22.90;;;12.00;99.90;;;;;;10382231;28;20233;-92
2022/10/31 07:52:13;;;;;;;38.60;24.97;;;12.00;99.90;;;;;;10393969;28;20505;-88
2022/10/31 07:57:59;;;;;;;34.43;21.43;;;12.00;99.90;;;;;;10393126;28;20211;-85
2022/10/31 08:03:21;;;;;;;34.13;21.20;;;12.00;99.90;;;;;;10381997;28;20391;-86
2022/10/31 08:09:01;;;;;;;31.17;19.63;;;12.00;99.90;;;;;;10520126;28;20263;-79
2022/10/31 08:14:24;;;;;;;45.20;29.13;;;12.00;99.90;;;;;;10503952;28;20313;-88
2022/10/31 08:19:46;;;;;;;39.87;27.07;;;12.10;99.90;;;;;;10448032;28;20476;-80
2022/10/31 08:25:09;;;;;;;40.30;24.30;;;12.10;99.90;;;;;;10475523;28;20234;-88
2022/10/31 08:30:32;;;;;;;38.70;25.20;;;12.20;99.90;;;;;;10454599;28;20200;-81
2022/10/31 08:36:13;;;;;;;37.13;24.50;;;12.20;99.90;;;;;;10467697;28;20227;-81
2022/10/31 08:41:53;;;;;;;41.07;25.90;;;12.30;99.90;;;;;;10527746;28;20413;-89
2022/10/31 08:47:14;;;;;;;36.70;24.57;;;12.30;99.90;;;;;;10473227;28;20231;-82
2022/10/31 08:52:36;;;;;;;39.13;26.83;;;12.40;99.90;;;;;;10449169;28;20342;-82
2022/10/31 08:58:19;;;;;;;36.17;24.27;;;12.40;99.90;;;;;;10430935;28;20203;-85
2022/10/31 09:03:44;;;;;;;35.30;24.03;;;12.40;99.90;;;;;;10444605;28;20202;-86
2022/10/31 09:09:06;;;;;;;33.80;22.97;;;12.50;99.90;;;;;;10486495;28;20207;-83
2022/10/31 09:14:27;;;;;;;40.77;27.07;;;12.50;99.90;;;;;;10486777;28;20224;-82
2022/10/31 09:20:08;;;;;;;29.50;21.10;;;12.50;99.90;;;;;;10470021;28;20216;-93
2022/10/31 09:25:30;;;;;;;31.07;20.80;;;12.60;99.90;;;;;;10493385;28;20323;-82
2022/10/31 09:31:10;;;;;;;31.27;22.03;;;12.60;99.90;;;;;;10478765;28;20255;-87
2022/10/31 09:36:44;;;;;;;38.20;26.67;;;12.60;99.90;;;;;;10466471;28;20232;-83
2022/10/31 09:42:24;;;;;;;35.50;22.63;;;12.70;99.90;;;;;;10500756;28;20202;-80
2022/10/31 09:48:28;;;;;;;32.83;19.77;;;12.60;99.90;;;;;;10472400;28;20245;-81
2022/10/31 09:54:21;;;;;;;26.30;19.33;;;12.60;99.90;;;;;;10479227;28;20219;-83
2022/10/31 09:59:46;;;;;;;24.97;18.77;;;12.70;99.90;;;;;;10462895;28;20242;-86
2022/10/31 10:05:17;;;;;;;27.23;20.07;;;12.70;99.90;;;;;;10439621;28;20296;-80
2022/10/31 10:11:11;;;;;;;31.60;20.67;;;12.70;99.90;;;;;;10463523;28;20398;-86
2022/10/31 10:16:52;;;;;;;28.77;20.27;;;12.70;99.90;;;;;;10435754;28;20557;-87
2022/10/31 10:22:38;;;;;;;27.77;18.87;;;12.70;99.90;;;;;;10416818;28;20523;-85
2022/10/31 10:28:38;;;;;;;21.00;15.03;;;12.70;99.90;;;;;;10381980;28;20201;-88
2022/10/31 10:34:20;;;;;;;26.47;18.10;;;12.70;99.90;;;;;;10409351;28;20233;-88
2022/10/31 10:39:46;;;;;;;23.60;16.70;;;12.80;99.90;;;;;;10424733;28;20207;-80
2022/10/31 10:50:58;;;;;;;24.63;18.60;;;12.80;99.90;;;;;;10441033;28;20509;-86
2022/10/31 10:56:35;;;;;;;25.10;17.47;;;12.80;99.90;;;;;;10485526;28;20228;-80
2022/10/31 11:01:58;;;;;;;24.13;16.57;;;12.90;99.90;;;;;;10488218;28;20193;-92
2022/10/31 11:07:19;;;;;;;28.17;17.93;;;12.80;99.90;;;;;;10474471;28;20201;-83
2022/10/31 11:12:42;;;;;;;26.67;16.70;;;12.90;99.90;;;;;;10489728;28;20232;-83
2022/10/31 11:18:04;;;;;;;26.57;20.03;;;12.80;99.90;;;;;;10463942;28;20394;-84
2022/10/31 11:23:27;;;;;;;25.40;18.57;;;12.80;99.90;;;;;;10432637;28;20226;-79
2022/10/31 11:28:59;;;;;;;31.70;22.07;;;12.80;99.90;;;;;;10473200;28;20200;-87
2022/10/31 11:34:31;;;;;;;27.17;19.23;;;12.80;99.90;;;;;;10472706;28;20252;-79
2022/10/31 11:39:55;;;;;;;20.37;15.23;;;12.80;99.90;;;;;;10463070;28;20198;-82
2022/10/31 11:45:23;;;;;;;18.43;12.37;;;12.80;99.90;;;;;;10513729;28;20225;-82
2022/10/31 11:50:50;;;;;;;18.27;13.07;;;12.80;99.90;;;;;;10459816;28;20198;-81
2022/10/31 11:56:14;;;;;;;19.37;12.87;;;12.80;99.90;;;;;;10475666;28;20527;-84
2022/10/31 12:01:40;;;;;;;20.20;12.33;;;12.80;99.90;;;;;;10471819;28;20212;-80
2022/10/31 12:07:01;;;;;;;14.67;10.73;;;12.80;99.90;;;;;;10472743;28;20200;-79
2022/10/31 12:12:25;;;;;;;16.20;10.23;;;12.80;99.90;;;;;;10457750;28;20199;-84
2022/10/31 12:17:52;;;;;;;19.37;13.23;;;12.90;99.90;;;;;;10442193;28;20197;-79
2022/10/31 12:23:24;;;;;;;16.60;11.90;;;12.90;99.90;;;;;;10450279;28;20217;-79
2022/10/31 12:28:54;;;;;;;19.47;12.43;;;12.90;99.90;;;;;;10471593;28;20215;-79
2022/10/31 12:34:18;;;;;;;18.97;12.60;;;12.90;99.90;;;;;;10457370;28;20391;-79
2022/10/31 12:39:57;;;;;;;20.00;12.57;;;12.90;99.90;;;;;;10458651;28;20292;-80
2022/10/31 12:45:44;;;;;;;21.00;13.10;;;12.80;99.90;;;;;;10513806;28;20504;-87
2022/10/31 12:51:25;;;;;;;21.00;11.73;;;12.90;99.90;;;;;;10461362;28;20199;-81
2022/10/31 12:57:02;;;;;;;20.20;12.23;;;12.80;99.90;;;;;;10489135;28;20529;-83
2022/10/31 13:02:39;;;;;;;18.50;12.03;;;12.90;99.90;;;;;;10456187;28;20196;-81
2022/10/31 13:08:17;;;;;;;19.80;12.03;;;12.90;99.90;;;;;;10507886;28;20272;-79
2022/10/31 13:13:57;;;;;;;19.20;12.30;;;12.90;99.90;;;;;;10477045;28;20240;-81
2022/10/31 13:19:27;;;;;;;16.30;11.57;;;12.90;99.90;;;;;;10470367;28;20213;-82
2022/10/31 13:25:01;;;;;;;21.53;12.27;;;12.90;99.90;;;;;;10452916;28;20209;-80
2022/10/31 13:30:25;;;;;;;25.77;14.00;;;13.00;99.90;;;;;;10494208;28;20210;-89
2022/10/31 13:36:28;;;;;;;20.13;13.67;;;13.00;99.90;;;;;;10478268;28;20246;-86
2022/10/31 13:42:11;;;;;;;24.80;13.97;;;13.00;99.90;;;;;;10488974;28;20208;-80
2022/10/31 13:47:33;;;;;;;21.37;12.83;;;13.00;99.90;;;;;;10493999;28;20236;-81
2022/10/31 13:53:09;;;;;;;23.13;14.10;;;13.00;99.90;;;;;;10500398;28;20276;-83
2022/10/31 13:58:31;;;;;;;33.27;17.57;;;13.00;99.90;;;;;;10492901;28;20207;-84
2022/10/31 14:04:22;;;;;;;29.10;16.93;;;13.00;99.90;;;;;;10462873;28;20208;-85
2022/10/31 14:09:55;;;;;;;20.67;13.27;;;13.00;99.90;;;;;;10488999;28;20238;-83
2022/10/31 14:15:24;;;;;;;23.63;13.83;;;12.90;99.90;;;;;;10479540;28;20257;-80
2022/10/31 14:20:45;;;;;;;32.03;18.57;;;12.90;99.90;;;;;;10487643;28;20210;-83
2022/10/31 14:26:21;;;;;;;37.80;21.43;;;12.90;99.90;;;;;;10478026;28;20201;-84
2022/10/31 14:32:07;;;;;;;33.53;20.43;;;13.00;99.90;;;;;;10482165;28;20198;-83
2022/10/31 14:37:56;;;;;;;23.50;15.23;;;12.90;99.90;;;;;;10512533;28;20424;-78
2022/10/31 14:43:39;;;;;;;26.77;16.40;;;12.90;99.90;;;;;;10492046;28;20406;-83
2022/10/31 14:49:22;;;;;;;33.13;17.53;;;12.90;99.90;;;;;;10483446;28;20249;-83
2022/10/31 14:54:50;;;;;;;34.67;18.77;;;12.90;99.90;;;;;;10486202;28;20219;-87
2022/10/31 15:00:21;;;;;;;28.17;16.50;;;12.90;99.90;;;;;;10492617;28;20190;-79
2022/10/31 15:05:55;;;;;;;24.60;16.30;;;12.80;99.90;;;;;;10485740;28;20205;-82
2022/10/31 15:11:25;;;;;;;27.13;17.77;;;12.80;99.90;;;;;;10492958;28;20197;-82
2022/10/31 15:16:46;;;;;;;33.10;20.47;;;12.80;99.90;;;;;;10484946;28;20225;-81
2022/10/31 15:22:14;;;;;;;26.80;17.53;;;12.80;99.90;;;;;;10466090;28;20241;-80
2022/10/31 15:27:40;;;;;;;25.60;15.93;;;12.90;99.90;;;;;;10478363;28;20205;-83
2022/10/31 15:33:01;;;;;;;25.30;15.80;;;12.90;99.90;;;;;;10487438;28;20226;-83
2022/10/31 15:38:23;;;;;;;24.97;16.97;;;12.80;99.90;;;;;;10503434;28;20204;-83
2022/10/31 15:43:45;;;;;;;26.43;16.70;;;12.80;99.90;;;;;;10484494;28;20233;-83
2022/10/31 15:49:23;;;;;;;26.30;16.87;;;12.80;99.90;;;;;;10491100;28;20245;-82
2022/10/31 15:54:54;;;;;;;24.97;14.83;;;12.80;99.90;;;;;;10485428;28;20271;-79
2022/10/31 16:00:29;;;;;;;21.00;14.93;;;12.80;99.90;;;;;;10492586;28;20201;-85
2022/10/31 16:05:53;;;;;;;17.33;12.70;;;12.80;99.90;;;;;;10504451;28;20200;-83
2022/10/31 16:11:22;;;;;;;20.13;14.73;;;12.80;99.90;;;;;;10446838;28;20517;-81
2022/10/31 16:16:48;;;;;;;17.27;13.13;;;12.80;99.90;;;;;;10467582;28;20233;-80
2022/10/31 16:22:14;;;;;;;19.20;15.57;;;12.80;99.90;;;;;;10487996;28;20201;-88
2022/10/31 16:27:36;;;;;;;19.00;14.63;;;12.80;99.90;;;;;;10474924;28;20193;-86
2022/10/31 16:32:59;;;;;;;19.13;14.80;;;12.80;99.90;;;;;;10490725;28;20211;-86
2022/10/31 16:38:20;;;;;;;20.00;14.47;;;12.80;99.90;;;;;;10495864;28;20215;-89
2022/10/31 16:43:41;;;;;;;17.70;13.13;;;12.80;99.90;;;;;;10507039;28;20405;-81
2022/10/31 16:49:03;;;;;;;16.63;12.67;;;12.80;99.90;;;;;;10482227;28;20247;-83
2022/10/31 16:54:24;;;;;;;17.63;13.73;;;12.80;99.90;;;;;;10481432;28;20217;-80
2022/10/31 16:59:51;;;;;;;26.07;18.43;;;12.80;99.90;;;;;;10468377;28;20185;-84
2022/10/31 17:05:13;;;;;;;26.57;19.07;;;12.80;99.90;;;;;;10468432;28;20224;-85
2022/10/31 17:10:35;;;;;;;26.80;19.20;;;12.80;99.90;;;;;;10498462;28;20206;-83
2022/10/31 17:15:59;;;;;;;28.50;18.87;;;12.80;99.90;;;;;;10469394;28;20219;-80
2022/10/31 17:21:22;;;;;;;30.63;20.30;;;12.80;99.90;;;;;;10466533;28;20211;-80
2022/10/31 17:26:44;;;;;;;29.17;19.83;;;12.80;99.90;;;;;;10470282;28;20282;-80
2022/10/31 17:32:05;;;;;;;27.67;17.73;;;12.80;99.90;;;;;;10442875;28;20262;-79
2022/10/31 17:37:26;;;;;;;23.60;15.97;;;12.80;99.90;;;;;;10444494;28;20240;-80
2022/10/31 17:42:52;;;;;;;22.73;15.20;;;12.80;99.90;;;;;;10508333;28;20213;-79
2022/10/31 17:48:13;;;;;;;21.70;14.93;;;12.80;99.90;;;;;;10468525;28;20257;-79
2022/10/31 17:53:35;;;;;;;33.93;21.23;;;12.80;99.90;;;;;;10482395;28;20186;-82
2022/10/31 17:58:56;;;;;;;28.40;17.93;;;12.80;99.90;;;;;;10482425;28;20207;-80
2022/10/31 18:04:17;;;;;;;24.43;15.87;;;12.80;99.90;;;;;;10457775;28;20205;-79
2022/10/31 18:09:38;;;;;;;20.63;13.50;;;12.90;99.90;;;;;;10468586;28;20197;-88
2022/10/31 18:14:59;;;;;;;21.87;13.13;;;12.80;99.90;;;;;;10481529;28;20223;-79
2022/10/31 18:20:21;;;;;;;19.87;11.50;;;12.90;99.90;;;;;;10472491;28;20430;-80
2022/10/31 18:25:42;;;;;;;17.30;12.83;;;12.80;99.90;;;;;;10453896;28;20384;-79
2022/10/31 18:31:04;;;;;;;19.43;13.63;;;12.80;99.90;;;;;;10455963;28;20204;-79
2022/10/31 18:36:25;;;;;;;17.70;12.13;;;12.80;99.90;;;;;;10458559;28;20690;-90
2022/10/31 18:41:46;;;;;;;17.47;12.03;;;12.80;99.90;;;;;;10497828;28;20197;-79
2022/10/31 18:47:07;;;;;;;23.33;15.03;;;12.80;99.90;;;;;;10479989;28;20237;-78
2022/10/31 18:52:28;;;;;;;22.80;14.23;;;12.80;99.90;;;;;;10479407;28;20201;-80
2022/10/31 18:57:49;;;;;;;17.80;12.53;;;12.80;99.90;;;;;;10479774;28;20228;-80
2022/10/31 19:03:11;;;;;;;26.50;15.57;;;12.80;99.90;;;;;;10479563;28;20561;-83
2022/10/31 19:08:33;;;;;;;25.90;15.13;;;12.70;99.90;;;;;;10479656;28;20196;-84
2022/10/31 19:13:55;;;;;;;19.17;13.40;;;12.70;99.90;;;;;;10478585;28;20210;-89
2022/10/31 19:19:17;;;;;;;17.53;11.87;;;12.70;99.90;;;;;;10478731;28;20249;-79
2022/10/31 19:24:39;;;;;;;18.97;12.20;;;12.70;99.90;;;;;;10438120;28;20243;-90
2022/10/31 19:30:00;;;;;;;14.60;10.30;;;12.70;99.90;;;;;;10438594;28;20194;-80
2022/10/31 19:35:21;;;;;;;15.30;9.17;;;12.60;99.90;;;;;;10455010;28;20217;-79
2022/10/31 19:40:42;;;;;;;13.27;8.50;;;12.60;99.90;;;;;;10505965;28;20192;-88
2022/10/31 19:46:04;;;;;;;12.90;8.93;;;12.60;99.90;;;;;;10505676;28;20240;-80
2022/10/31 19:51:25;;;;;;;17.10;11.17;;;12.60;99.90;;;;;;10519853;28;20227;-83
2022/10/31 19:56:46;;;;;;;16.90;11.87;;;12.60;99.90;;;;;;10504953;28;20286;-83
2022/10/31 20:02:18;;;;;;;17.77;11.90;;;12.60;99.90;;;;;;10521527;28;20258;-79
2022/10/31 20:07:39;;;;;;;14.13;10.50;;;12.60;99.90;;;;;;10451358;28;20220;-79
2022/10/31 20:13:01;;;;;;;14.80;10.60;;;12.60;99.90;;;;;;10463117;28;20205;-88
2022/10/31 20:18:22;;;;;;;17.17;10.23;;;12.50;99.90;;;;;;10463401;28;20228;-90
2022/10/31 20:23:48;;;;;;;15.90;11.23;;;12.50;99.90;;;;;;10440394;28;20424;-90
2022/10/31 20:29:14;;;;;;;16.77;12.47;;;12.50;99.90;;;;;;10464392;28;20216;-79
2022/10/31 20:34:35;;;;;;;16.33;10.97;;;12.50;99.90;;;;;;10435681;28;20219;-80
2022/10/31 20:39:57;;;;;;;13.67;9.17;;;12.40;99.90;;;;;;10490113;28;20374;-79
2022/10/31 20:45:17;;;;;;;12.70;8.93;;;12.40;99.90;;;;;;10518510;28;20545;-90
2022/10/31 20:50:39;;;;;;;13.57;8.93;;;12.40;99.90;;;;;;10518938;28;20390;-89
2022/10/31 20:56:10;;;;;;;12.00;8.33;;;12.30;99.90;;;;;;10518671;28;20221;-90
2022/10/31 21:01:34;;;;;;;10.13;6.70;;;12.30;99.90;;;;;;10505040;28;20521;-90
2022/10/31 21:06:55;;;;;;;8.27;6.50;;;12.30;99.90;;;;;;10476975;28;20192;-84
2022/10/31 21:12:16;;;;;;;11.83;8.37;;;12.30;99.90;;;;;;10476431;28;20205;-89
2022/10/31 21:17:38;;;;;;;10.87;7.50;;;12.30;99.90;;;;;;10481886;28;20219;-89
2022/10/31 21:22:59;;;;;;;9.70;6.33;;;12.30;99.90;;;;;;10483680;28;20205;-89
2022/10/31 21:28:20;;;;;;;8.67;6.57;;;12.20;99.90;;;;;;10483818;28;20494;-79
2022/10/31 21:33:42;;;;;;;10.87;7.30;;;12.20;99.90;;;;;;10497309;28;20216;-82
2022/10/31 21:39:06;;;;;;;7.67;6.10;;;12.20;99.90;;;;;;10492892;28;20242;-82
2022/10/31 21:44:27;;;;;;;7.27;5.73;;;12.20;99.90;;;;;;10525557;28;20189;-79
2022/10/31 21:49:48;;;;;;;8.80;7.07;;;12.10;99.90;;;;;;10524690;28;20206;-89
2022/10/31 21:55:09;;;;;;;11.10;8.03;;;12.00;99.90;;;;;;10526286;28;20218;-85
2022/10/31 22:00:30;;;;;;;8.37;6.53;;;12.00;99.90;;;;;;10518743;28;20192;-79
2022/10/31 22:05:51;;;;;;;8.83;6.97;;;12.00;99.90;;;;;;10454641;28;20195;-87
2022/10/31 22:11:15;;;;;;;9.67;7.60;;;12.00;99.90;;;;;;10483301;28;20223;-84
2022/10/31 22:16:36;;;;;;;8.60;6.93;;;12.00;99.90;;;;;;10481696;28;20252;-82
2022/10/31 22:21:58;;;;;;;11.93;8.30;;;11.90;99.90;;;;;;10459367;28;20209;-89
2022/10/31 22:27:19;;;;;;;13.13;7.93;;;12.00;99.90;;;;;;10456454;28;20530;-79
2022/10/31 22:32:40;;;;;;;11.93;8.57;;;11.90;99.90;;;;;;10459867;28;20204;-79
2022/10/31 22:38:01;;;;;;;13.83;9.03;;;11.90;99.90;;;;;;10486965;28;20266;-88
2022/10/31 22:43:23;;;;;;;12.30;9.17;;;11.90;99.90;;;;;;10524599;28;20255;-89
2022/10/31 22:48:49;;;;;;;13.20;8.33;;;11.90;99.90;;;;;;10542596;28;20468;-89
2022/10/31 22:54:14;;;;;;;9.90;7.37;;;11.90;99.90;;;;;;10525653;28;20214;-82
2022/10/31 22:59:35;;;;;;;12.93;7.97;;;11.90;99.90;;;;;;10507231;28;20199;-79
2022/10/31 23:04:56;;;;;;;11.30;7.90;;;11.90;99.90;;;;;;10485420;28;20196;-87
2022/10/31 23:10:17;;;;;;;10.53;7.17;;;11.90;99.90;;;;;;10465575;28;20209;-82
2022/10/31 23:15:38;;;;;;;8.63;6.53;;;11.90;99.90;;;;;;10480013;28;20216;-83
2022/10/31 23:21:00;;;;;;;12.97;8.60;;;11.90;99.90;;;;;;10465211;28;20207;-82
2022/10/31 23:32:02;;;;;;;11.53;7.73;;;11.80;99.90;;;;;;10457205;28;20273;-79
2022/10/31 23:37:26;;;;;;;8.63;6.87;;;11.80;99.90;;;;;;10472159;28;20228;-85
2022/10/31 23:42:48;;;;;;;11.40;7.40;;;11.80;99.90;;;;;;10489823;28;20216;-84
2022/10/31 23:48:09;;;;;;;10.73;7.70;;;11.80;99.90;;;;;;10507104;28;20223;-90
2022/10/31 23:53:30;;;;;;;12.53;7.70;;;11.80;99.90;;;;;;10539740;28;20267;-90
2022/10/31 23:58:51;;;;;;;12.03;7.73;;;11.80;99.90;;;;;;10519762;28;20275;-87
